Aérodrome :
LOGIN :

S'inscrire | Disclaimer

   EN    FR    IT 

 










Légende :    VFR   VFR Marginal   IFR   IFR Intensif   IFR Très Intensif
Visi : 
Plafond : 
>= 8 km
>= 3000ft
5 à 8 km
1000 à 3000 ft
1500m à 5 km
500 à 1000 ft
800 à 1500m
200 à 500 ft
< 800m
< 200 ft
Symboles :   Orages  Brouillard  Fortes neiges  Fortes précipitations  Vent > 20 kt
SIGMETs :   Divers  Orages  Givrage  Turbulence  Onde Orograph.  Cendres Volcan.






- Altitude de l'aérodrome : 1197 ft
- Code IATA : SPM


ETAD - Spangdahlem Ab

DERNIER METAR :
  • 080556Z AUTO 00000KT 9999 CLR 22/14 A3015 RMK AO2 SLP180 T02150136 10215 20172 52008 $

METARs EXPIRÉS :
  • 080456Z AUTO 00000KT 9999 CLR 19/13 A3015 RMK AO2 SLP182 T01920129 $
  • 080356Z AUTO 00000KT 9999 CLR 19/12 A3013 RMK AO2 SLP173 T01870122 $

TAF TAF ETAD
Valide du 08 à 06h jusqu'au 09 à 12h UTC


080600Z 0806/0912 VRB03KT 9999 SKC QNH3014INS
BECMG 0811/0812 18008KT 9999 FEW090 QNH3010INS
BECMG 0822/0823 VRB03KT 9999 SKC QNH3006INS TX33/0815Z TN18/0904Z



MET'MAP, la Météo Aéronautique d'un coup d'oeil ! - Copyright ORBIFLY Décembre 2007 - Disclaimer

ORBIFLY MET'MAP TEAM :

Programmation & Développement : Alexandra Zaïnal
Sur une idée originale de : Baudouin d'Aumeries
Assistance à la programmation : Marc-Olivier Méhu
Soutien technique & logistique : Manuel Goepfert

Contact : metmap@orbifly.com




SOURCES & CREDITS :

   NOAA